Flight Track Log - Related Links

Times and Time Zones

All times are in EDT time to prevent confusion due to time zone crossing. See the HL-8251 flight status page for this flight to view local times or setup timezone preferences in your user account.

Time Position Orientation Groundspeed Altitude Reporting Facility
EDT Latitude Longitude Course Direction KTS MPH feet Rate Location/Type
Tue 02:30:12 AM 48.1270 16.3680 278° West 273 314 7,100  Level FlightAware ADS-B
Tue 02:30:37 AM 48.1310 16.3260 278° West 283 326 8,500 3,600 Climbing FlightAware ADS-B
Tue 02:31:17 AM 48.1410 16.2370 280° West 318 366 11,000 3,600 Climbing FlightAware ADS-B
Tue 02:31:27 AM 48.1490 16.2120 296° West 338 389 11,500 2,600 Climbing FlightAware ADS-B
Tue 02:31:47 AM 48.1690 16.1850 318° Northwest 356 410 12,300 2,308 Climbing FlightAware ADS-B
Tue 02:32:32 AM 48.2400 16.1320 334° Northwest 376 433 14,000 2,753 Climbing FlightAware ADS-B
Tue 02:33:12 AM 48.3040 16.0900 336° Northwest 387 445 16,200 1,650 Climbing FlightAware ADS-B
Tue 02:33:52 AM 48.3590 16.0510 335° Northwest 387 445 16,200  Level FlightAware ADS-B
Tue 02:34:32 AM 48.4140 16.0120 335° Northwest 387 445 16,200  Level FlightAware ADS-B
Tue 02:35:12 AM 48.4690 15.9730 335° Northwest 387 445 16,200 8,329 Level FlightAware ADS-B
Tue 02:35:57 AM 48.6030 15.8630 332° Northwest 417 480 28,000 8,933 Climbing FlightAware ADS-B
Tue 02:36:42 AM 48.6800 15.7950 330° Northwest 415 478 29,600 2,612 Climbing FlightAware ADS-B
Tue 02:37:22 AM 48.7460 15.7370 330° Northwest 423 487 31,700 2,965 Climbing FlightAware ADS-B
Tue 02:38:07 AM 48.8230 15.6710 331° Northwest 406 467 33,800 1,624 Climbing FlightAware ADS-B
Tue 02:38:47 AM 48.8870 15.6170 331° Northwest 399 459 34,000 141 Climbing FlightAware ADS-B
Tue 02:39:32 AM 48.9570 15.5580 331° Northwest 396 456 34,000  Level FlightAware ADS-B
Tue 02:40:12 AM 49.0240 15.5110 335° Northwest 390 449 34,000  Level FlightAware ADS-B
Tue 02:40:52 AM 49.0810 15.4740 337° Northwest 383 441 34,000  Level FlightAware ADS-B
Tue 02:41:37 AM 49.1610 15.4220 337° Northwest 384 442 34,000  Level FlightAware ADS-B
Tue 02:42:17 AM 49.2260 15.3800 337° Northwest 391 450 34,000  Level FlightAware ADS-B
Tue 02:42:57 AM 49.2980 15.3340 337° Northwest 390 449 34,000  Level FlightAware ADS-B
Tue 02:43:42 AM 49.3740 15.2840 337° Northwest 388 447 34,000  Level FlightAware ADS-B
Tue 02:44:22 AM 49.4390 15.2410 337° Northwest 388 447 34,000  Level FlightAware ADS-B
Tue 02:45:07 AM 49.5060 15.1970 337° Northwest 388 447 34,000  Level FlightAware ADS-B
Tue 02:46:02 AM 49.6010 15.1350 337° Northwest 388 447 34,000  Level FlightAware ADS-B
Tue 02:46:42 AM 49.6600 15.0960 337° Northwest 388 447 34,000  Level FlightAware ADS-B
Tue 02:47:27 AM 49.7410 15.0470 339° North 387 445 34,000  Level FlightAware ADS-B
Tue 02:48:07 AM 49.8050 15.0110 340° North 389 448 34,000  Level FlightAware ADS-B
Tue 02:48:47 AM 49.8750 14.9720 340° North 390 449 34,000  Level FlightAware ADS-B
Tue 02:49:27 AM 49.9410 14.9340 340° North 390 449 34,000  Level FlightAware ADS-B
Tue 02:50:12 AM 50.0110 14.8950 340° North 390 449 34,000  Level FlightAware ADS-B
Tue 02:50:57 AM 50.0970 14.8470 340° North 390 449 34,000  Level FlightAware ADS-B
Tue 02:51:37 AM 50.1650 14.8090 340° North 389 448 34,000  Level FlightAware ADS-B
Tue 02:52:17 AM 50.2320 14.7710 340° North 388 447 34,000  Level FlightAware ADS-B
Tue 02:53:02 AM 50.3110 14.7260 340° North 386 444 34,000  Level FlightAware ADS-B
Tue 02:53:42 AM 50.3770 14.6880 340° North 386 444 34,000  Level FlightAware ADS-B
Tue 02:54:27 AM 50.4470 14.6480 340° North 387 445 34,000  Level FlightAware ADS-B
Tue 02:55:07 AM 50.5090 14.6120 340° North 388 447 34,000  Level FlightAware ADS-B
Tue 02:56:02 AM 50.6120 14.5530 340° North 387 445 34,000  Level FlightAware ADS-B
Tue 02:56:42 AM 50.6790 14.5140 340° North 386 444 34,000  Level FlightAware ADS-B
Tue 02:57:27 AM 50.7560 14.4910 349° North 384 442 34,000  Level FlightAware ADS-B
Tue 02:58:02 AM 50.8150 14.4780 352° North 384 442 34,000  Level FlightAware ADS-B
Tue 02:58:52 AM 50.9070 14.4510 350° North 387 445 34,000  Level FlightAware ADS-B
Tue 02:59:32 AM 50.9770 14.4310 350° North 387 445 34,000  Level FlightAware ADS-B
Tue 03:00:12 AM 51.0470 14.4140 351° North 386 444 34,000  Level FlightAware ADS-B
Tue 03:00:57 AM 51.1250 14.3950 351° North 385 443 34,000  Level FlightAware ADS-B
Tue 03:01:32 AM 51.1850 14.3810 352° North 386 444 34,000  Level FlightAware ADS-B
Tue 03:02:22 AM 51.2710 14.3590 351° North 386 444 34,000  Level FlightAware ADS-B
Tue 03:03:02 AM 51.3420 14.3420 351° North 386 444 34,000  Level FlightAware ADS-B
Tue 03:03:42 AM 51.4090 14.3250 351° North 387 445 34,000  Level FlightAware ADS-B
Tue 03:04:27 AM 51.4870 14.3060 351° North 387 445 34,000  Level FlightAware ADS-B
Tue 03:05:07 AM 51.5640 14.2870 351° North 385 443 34,000  Level FlightAware ADS-B
Tue 03:05:47 AM 51.6320 14.2700 351° North 385 443 34,000  Level FlightAware ADS-B
Tue 03:06:32 AM 51.7120 14.2500 351° North 385 443 34,000  Level FlightAware ADS-B
Tue 03:07:12 AM 51.7850 14.2320 351° North 386 444 34,000  Level FlightAware ADS-B
Tue 03:07:57 AM 51.8600 14.2130 351° North 386 444 34,000  Level FlightAware ADS-B
Tue 03:08:37 AM 51.9330 14.1950 351° North 386 444 34,000  Level FlightAware ADS-B
Tue 03:09:22 AM 52.0140 14.1740 351° North 386 444 34,000  Level FlightAware ADS-B
Tue 03:10:02 AM 52.0850 14.1560 351° North 386 444 34,000  Level FlightAware ADS-B
Tue 03:10:42 AM 52.1550 14.1380 351° North 387 445 34,000  Level FlightAware ADS-B
Tue 03:11:27 AM 52.2330 14.1190 352° North 387 445 34,000  Level FlightAware ADS-B
Tue 03:12:07 AM 52.3040 14.1000 351° North 387 445 34,000  Level FlightAware ADS-B
Tue 03:12:52 AM 52.3860 14.0790 351° North 387 445 34,000  Level FlightAware ADS-B
Tue 03:13:32 AM 52.4560 14.0610 351° North 387 445 34,000  Level FlightAware ADS-B
Tue 03:14:12 AM 52.5270 14.0430 351° North 386 444 34,000  Level FlightAware ADS-B
Tue 03:14:57 AM 52.6040 14.0230 351° North 386 444 34,000  Level FlightAware ADS-B
Tue 03:15:37 AM 52.6760 14.0040 351° North 388 447 34,000  Level FlightAware ADS-B
Tue 03:16:22 AM 52.7570 13.9830 351° North 389 448 34,000  Level FlightAware ADS-B
Tue 03:17:02 AM 52.8290 13.9640 351° North 390 449 34,000  Level FlightAware ADS-B
Tue 03:17:42 AM 52.8980 13.9460 351° North 391 450 34,000  Level FlightAware ADS-B
Tue 03:18:27 AM 52.9770 13.9250 351° North 389 448 34,000  Level FlightAware ADS-B
Tue 03:19:07 AM 53.0450 13.9070 351° North 390 449 34,000  Level FlightAware ADS-B
Tue 03:19:47 AM 53.1200 13.8870 351° North 390 449 34,000  Level FlightAware ADS-B
Tue 03:20:32 AM 53.1990 13.8660 351° North 388 447 34,000  Level FlightAware ADS-B
Tue 03:21:12 AM 53.2720 13.8460 351° North 388 447 34,000  Level FlightAware ADS-B
Tue 03:21:57 AM 53.3540 13.8240 351° North 386 444 34,000  Level FlightAware ADS-B
Tue 03:22:37 AM 53.4250 13.8050 351° North 386 444 34,000  Level FlightAware ADS-B
Tue 03:23:17 AM 53.4940 13.7860 351° North 386 444 34,000  Level FlightAware ADS-B
Tue 03:24:02 AM 53.5680 13.7660 351° North 385 443 34,000  Level FlightAware ADS-B
Tue 03:24:42 AM 53.6420 13.7460 351° North 386 444 34,000  Level FlightAware ADS-B
Tue 03:25:27 AM 53.7190 13.7250 351° North 385 443 34,000  Level FlightAware ADS-B
Tue 03:26:07 AM 53.7910 13.7050 351° North 384 442 34,000  Level FlightAware ADS-B
Tue 03:26:52 AM 53.8710 13.6830 351° North 385 443 34,000  Level FlightAware ADS-B
Tue 03:27:32 AM 53.9420 13.6630 351° North 386 444 34,000  Level FlightAware ADS-B
Tue 03:28:17 AM 54.0170 13.6420 351° North 387 445 34,000  Level FlightAware ADS-B
Tue 03:28:57 AM 54.0890 13.6220 351° North 388 447 34,000  Level FlightAware ADS-B
Tue 03:29:42 AM 54.1700 13.6000 351° North 387 445 34,000  Level FlightAware ADS-B
Tue 03:30:22 AM 54.2380 13.5810 351° North 386 444 34,000  Level FlightAware ADS-B
Tue 03:31:02 AM 54.3120 13.5600 351° North 386 444 34,000  Level FlightAware ADS-B
Tue 03:31:47 AM 54.3890 13.5380 351° North 386 444 34,000  Level FlightAware ADS-B
Tue 03:32:27 AM 54.4590 13.5180 351° North 387 445 34,000  Level FlightAware ADS-B
Tue 03:33:12 AM 54.5390 13.4950 351° North 387 445 34,000  Level FlightAware ADS-B
Tue 03:33:52 AM 54.6110 13.4750 351° North 386 444 34,000  Level FlightAware ADS-B
Tue 03:34:32 AM 54.6810 13.4540 350° North 386 444 34,000  Level FlightAware ADS-B
Tue 03:35:12 AM 54.7520 13.4340 351° North 387 445 34,000  Level FlightAware ADS-B
Tue 03:35:52 AM 54.8220 13.4120 350° North 385 443 34,000  Level FlightAware ADS-B
Tue 03:36:42 AM 54.9080 13.3750 346° North 385 443 34,000  Level FlightAware ADS-B
Tue 03:37:22 AM 54.9760 13.3450 346° North 383 441 34,000  Level FlightAware ADS-B
Tue 03:38:02 AM 55.0450 13.3130 345° North 385 443 34,000  Level FlightAware ADS-B
Tue 03:38:47 AM 55.1210 13.2780 345° North 386 444 34,000  Level FlightAware ADS-B
Tue 03:39:27 AM 55.1900 13.2470 346° North 386 444 34,000  Level FlightAware ADS-B
Tue 03:40:07 AM 55.2600 13.2150 345° North 386 444 34,000  Level FlightAware ADS-B
Tue 03:40:47 AM 55.3270 13.1840 345° North 385 443 34,000  Level FlightAware ADS-B
Tue 03:41:32 AM 55.4080 13.1470 345° North 384 442 34,000  Level FlightAware ADS-B
Tue 03:42:17 AM 55.4820 13.1130 345° North 384 442 34,000  Level FlightAware ADS-B
Tue 03:42:57 AM 55.5510 13.0810 345° North 382 440 34,000  Level FlightAware ADS-B
Tue 03:43:42 AM 55.6310 13.0440 345° North 383 441 34,000  Level FlightAware ADS-B
Tue 03:44:22 AM 55.6970 13.0130 345° North 382 440 34,000  Level FlightAware ADS-B
Tue 03:44:47 AM 55.7380 12.9930 345° North 382 440 34,000  Level FlightAware ADS-B
Tue 03:45:32 AM 55.8180 12.9550 345° North 383 441 34,000  Level FlightAware ADS-B
Tue 03:46:12 AM 55.8860 12.9230 345° North 383 441 34,000  Level FlightAware ADS-B
Tue 03:46:57 AM 55.9620 12.8870 345° North 384 442 34,000  Level FlightAware ADS-B
Tue 03:47:37 AM 56.0300 12.8540 345° North 386 444 34,000  Level FlightAware ADS-B
Tue 03:48:17 AM 56.0980 12.8220 345° North 386 444 34,000  Level FlightAware ADS-B
Tue 03:49:02 AM 56.1780 12.7830 345° North 388 447 34,000  Level FlightAware ADS-B
Tue 03:49:42 AM 56.2470 12.7500 345° North 389 448 34,000  Level FlightAware ADS-B
Tue 03:50:27 AM 56.3240 12.7130 345° North 389 448 34,000  Level FlightAware ADS-B
Tue 03:51:07 AM 56.3940 12.6790 345° North 388 447 34,000  Level FlightAware ADS-B
Tue 03:51:52 AM 56.4710 12.6410 345° North 387 445 34,000  Level FlightAware ADS-B
Tue 03:52:32 AM 56.5420 12.6060 345° North 387 445 34,000  Level FlightAware ADS-B
Tue 03:53:12 AM 56.6110 12.5720 345° North 386 444 34,000  Level FlightAware ADS-B
Tue 03:53:57 AM 56.6850 12.5360 345° North 384 442 34,000  Level FlightAware ADS-B
Tue 03:54:37 AM 56.7530 12.5020 345° North 383 441 34,000  Level FlightAware ADS-B
Tue 03:55:22 AM 56.8320 12.4620 345° North 383 441 34,000  Level FlightAware ADS-B
Tue 03:56:02 AM 56.8960 12.4300 345° North 383 441 34,000  Level FlightAware ADS-B
Tue 03:56:42 AM 56.9700 12.3930 345° North 383 441 34,000  Level FlightAware ADS-B
Tue 03:57:27 AM 57.0440 12.3560 345° North 384 442 34,000  Level FlightAware ADS-B
Tue 03:58:07 AM 57.1120 12.3210 344° North 385 443 34,000  Level FlightAware ADS-B
Tue 03:58:52 AM 57.1910 12.2820 345° North 386 444 34,000  Level FlightAware ADS-B
Tue 03:59:32 AM 57.2580 12.2470 344° North 387 445 34,000  Level FlightAware ADS-B
Tue 04:00:12 AM 57.3260 12.2120 344° North 387 445 34,000  Level FlightAware ADS-B
Tue 04:00:57 AM 57.4050 12.1720 345° North 385 443 34,000  Level FlightAware ADS-B
Tue 04:01:37 AM 57.4750 12.1360 345° North 386 444 34,000  Level FlightAware ADS-B
Tue 04:02:22 AM 57.5500 12.1020 346° North 388 447 34,000  Level FlightAware ADS-B
Tue 04:03:02 AM 57.6210 12.0700 346° North 389 448 34,000  Level FlightAware ADS-B
Tue 04:03:42 AM 57.6870 12.0390 346° North 391 450 34,000  Level FlightAware ADS-B
Tue 04:04:22 AM 57.7610 12.0050 346° North 391 450 34,000  Level FlightAware ADS-B
Tue 04:05:07 AM 57.8410 11.9670 346° North 390 449 34,000  Level FlightAware ADS-B
Tue 04:05:47 AM 57.9110 11.9350 346° North 389 448 34,000  Level FlightAware ADS-B
Tue 04:06:32 AM 57.9870 11.8990 346° North 387 445 34,000  Level FlightAware ADS-B
Tue 04:07:12 AM 58.0560 11.8660 346° North 384 442 34,000  Level FlightAware ADS-B
Tue 04:07:57 AM 58.1330 11.8300 346° North 383 441 34,000  Level FlightAware ADS-B
Tue 04:08:37 AM 58.1990 11.7980 346° North 380 437 34,000  Level FlightAware ADS-B
Tue 04:09:22 AM 58.2760 11.7620 346° North 381 438 34,000  Level FlightAware ADS-B
Tue 04:10:02 AM 58.3460 11.7280 346° North 384 442 34,000  Level FlightAware ADS-B
Tue 04:10:47 AM 58.4270 11.6890 346° North 387 445 34,000 -71 Level FlightAware ADS-B
Tue 04:11:27 AM 58.4960 11.6560 346° North 382 440 33,900 -675 Descending FlightAware ADS-B
Tue 04:12:07 AM 58.5630 11.6230 346° North 376 433 33,100 -1,271 Descending FlightAware ADS-B
Tue 04:12:52 AM 58.6370 11.5870 346° North 370 426 32,100 -1,341 Descending FlightAware ADS-B
Tue 04:13:32 AM 58.7040 11.5540 346° North 366 421 31,200 -1,125 Descending FlightAware ADS-B
Tue 04:14:12 AM 58.7670 11.5230 346° North 357 411 30,600 -918 Descending FlightAware ADS-B
Tue 04:14:57 AM 58.8390 11.4870 345° North 342 394 29,900 -988 Descending FlightAware ADS-B
Tue 04:15:37 AM 58.8980 11.4580 346° North 335 386 29,200 -1,341 Descending FlightAware ADS-B
Tue 04:16:22 AM 58.9670 11.4230 345° North 326 375 28,000 -1,694 Descending FlightAware ADS-B
Tue 04:17:02 AM 59.0230 11.3960 346° North 324 373 26,800 -1,624 Descending FlightAware ADS-B
Tue 04:17:47 AM 59.0860 11.3640 345° North 320 368 25,700 -1,624 Descending FlightAware ADS-B
Tue 04:18:27 AM 59.1440 11.3350 346° North 320 368 24,500 -1,516 Descending FlightAware ADS-B
Tue 04:19:22 AM 59.2300 11.3440 North 358 412 23,300 -1,320 Descending FlightAware ADS-B
Tue 04:20:07 AM 59.3010 11.3890 18° North 344 396 22,300 -1,624 Descending FlightAware ADS-B
Tue 04:20:47 AM 59.3600 11.4270 18° North 345 397 21,000 -2,175 Descending FlightAware ADS-B
Tue 04:21:27 AM 59.4210 11.4650 18° North 352 405 19,400 -1,906 Descending FlightAware ADS-B
Tue 04:22:12 AM 59.4910 11.5100 18° North 344 396 18,300 -1,482 Descending FlightAware ADS-B
Tue 04:22:52 AM 59.5510 11.5480 18° North 336 387 17,300 -1,520 Descending FlightAware ADS-B
Tue 04:23:27 AM 59.6010 11.5790 17° North 331 381 16,400 -1,482 Descending FlightAware ADS-B
Tue 04:24:17 AM 59.6670 11.6210 18° North 326 375 15,200 -1,453 Descending FlightAware ADS-B
Tue 04:25:02 AM 59.7340 11.6630 18° North 319 367 14,100 -1,482 Descending FlightAware ADS-B
Tue 04:25:42 AM 59.7930 11.7020 18° North 320 368 13,100 -1,457 Descending FlightAware ADS-B
Tue 04:26:12 AM 59.8350 11.7160 10° North 311 358 12,400 -1,200 Descending FlightAware ADS-B
Tue 04:26:37 AM 59.8690 11.7060 352° North 303 349 12,000 -738 Descending FlightAware ADS-B
Tue 04:27:17 AM 59.9220 11.6770 345° North 292 336 11,600 -847 Descending FlightAware ADS-B
Tue 04:28:02 AM 59.9810 11.6450 345° North 287 330 10,800 -1,129 Descending FlightAware ADS-B
Tue 04:28:42 AM 60.0320 11.6170 345° North 280 322 10,000 -1,200 Descending FlightAware ADS-B
Tue 04:29:12 AM 60.0680 11.5970 345° North 275 316 9,400 -1,091 Descending FlightAware ADS-B
Tue 04:29:37 AM 60.0990 11.5810 346° North 267 307 9,000 -873 Descending FlightAware ADS-B
Tue 04:30:07 AM 60.1330 11.5620 344° North 256 295 8,600 -1,000 Descending FlightAware ADS-B
Tue 04:30:37 AM 60.1640 11.5450 345° North 255 293 8,000 -1,091 Descending FlightAware ADS-B
Tue 04:31:02 AM 60.1960 11.5270 344° North 252 290 7,600 -982 Descending FlightAware ADS-B
Tue 04:31:32 AM 60.2290 11.5090 345° North 241 277 7,100 -800 Descending FlightAware ADS-B
Tue 04:31:47 AM 60.2440 11.5010 345° North 240 276 7,000 -600 Descending FlightAware ADS-B
Tue 04:32:12 AM 60.2710 11.4860 345° North 233 268 6,700 -545 Descending FlightAware ADS-B
Tue 04:32:42 AM 60.3010 11.4700 345° North 216 249 6,500 -514 Descending FlightAware ADS-B
Tue 04:32:47 AM 60.3050 11.4680 346° North 216 249 6,400 -533 Descending FlightAware ADS-B
Tue 04:33:27 AM 60.3390 11.4490 345° North 209 241 6,100 -480 Descending FlightAware ADS-B
Tue 04:34:02 AM 60.3720 11.4300 344° North 202 232 5,800 -480 Descending FlightAware ADS-B
Tue 04:34:17 AM 60.3810 11.4120 315° West 184 212 5,700 -480 Descending FlightAware ADS-B
Tue 04:34:27 AM 60.3840 11.3940 289° West 176 203 5,600 -800 Descending FlightAware ADS-B
Tue 04:35:17 AM 60.3940 11.3170 285° West 186 214 4,900 -750 Descending FlightAware ADS-B
Tue 04:35:47 AM 60.4010 11.2620 284° West 192 221 4,600 -480 Descending FlightAware ADS-B
Tue 04:36:07 AM 60.3980 11.2260 260° West 194 223 4,500 -120 Descending FlightAware ADS-B
Tue 04:36:37 AM 60.3820 11.1890 229° Southwest 178 205 4,500 -200 Level FlightAware ADS-B
Tue 04:37:07 AM 60.3590 11.1750 197° South 178 205 4,300 -720 Descending FlightAware ADS-B
Tue 04:37:27 AM 60.3420 11.1650 196° South 176 203 3,900 -1,050 Descending FlightAware ADS-B
Tue 04:38:27 AM 60.2960 11.1380 196° South 163 188 2,900 -960 Descending FlightAware ADS-B
Tue 04:38:42 AM 60.2850 11.1320 195° South 157 181 2,700 -800 Descending FlightAware ADS-B
Tue 04:39:27 AM 60.2570 11.1150 197° South 135 155 2,100 -800 Descending FlightAware ADS-B
Tue 04:39:42 AM 60.2490 11.1110 194° South 131 151 1,900 -750 Descending FlightAware ADS-B
Tue 04:40:07 AM 60.2340 11.1020 197° South 136 157 1,600 -800 Descending FlightAware ADS-B
Tue 04:40:42 AM 60.2130 11.0900 196° South 135 155 1,100 -857 Descending FlightAware ADS-B

Login

Don't have an account? Register now (free) for customized features, flight alerts, and more!